createdAt,value
2023-03-28T00:02:23.534Z,8.85
2023-03-28T00:04:50.001Z,8.73
2023-03-28T00:07:16.466Z,5.63
2023-03-28T00:09:42.976Z,8.63
2023-03-28T00:12:09.433Z,8.03
2023-03-28T00:14:36.285Z,7.55
2023-03-28T00:17:02.852Z,3.88
2023-03-28T00:19:29.333Z,1.75
2023-03-28T00:21:55.820Z,3.90
2023-03-28T00:24:22.368Z,2.70
2023-03-28T00:26:48.837Z,2.65
2023-03-28T00:29:16.700Z,6.45
2023-03-28T00:31:43.313Z,2.17
2023-03-28T00:34:09.902Z,2.55
2023-03-28T00:36:36.359Z,3.47
2023-03-28T00:39:04.252Z,3.03
2023-03-28T00:41:34.323Z,2.92
2023-03-28T00:44:02.530Z,4.68
2023-03-28T00:46:39.910Z,2.25
2023-03-28T00:49:18.615Z,3.53
2023-03-28T00:51:50.214Z,7.25
2023-03-28T00:54:19.947Z,6.18
2023-03-28T00:56:54.231Z,4.18
2023-03-28T00:59:24.658Z,4.55
2023-03-28T01:01:51.296Z,5.13
2023-03-28T01:04:20.693Z,7.63
2023-03-28T01:06:52.299Z,4.88
2023-03-28T01:09:20.556Z,5.20
2023-03-28T01:11:47.656Z,8.43
2023-03-28T01:14:17.624Z,15.43
2023-03-28T01:16:44.389Z,12.35
2023-03-28T01:19:42.417Z,8.57
2023-03-28T01:22:56.748Z,8.13
2023-03-28T01:25:37.273Z,3.10
2023-03-28T01:28:12.119Z,8.00
2023-03-28T01:31:11.151Z,9.38
2023-03-28T01:34:06.463Z,9.40
2023-03-28T01:36:48.164Z,9.00
2023-03-28T01:39:21.894Z,8.10
2023-03-28T01:42:06.812Z,8.33
2023-03-28T01:45:00.135Z,9.30
2023-03-28T01:47:36.057Z,4.63
2023-03-28T01:50:12.498Z,4.30
2023-03-28T01:52:47.836Z,9.30
2023-03-28T01:55:48.125Z,9.13
2023-03-28T01:58:39.492Z,5.32
2023-03-28T02:01:13.436Z,7.70
2023-03-28T02:03:46.424Z,3.22
2023-03-28T02:06:14.405Z,5.28
2023-03-28T02:08:43.796Z,7.33
2023-03-28T02:11:10.982Z,2.55
2023-03-28T02:13:43.347Z,4.90
2023-03-28T02:16:12.791Z,2.97
2023-03-28T02:18:46.313Z,4.95
2023-03-28T02:21:21.136Z,3.27
2023-03-28T02:23:51.754Z,3.72
2023-03-28T02:26:19.902Z,3.30
2023-03-28T02:28:50.329Z,1.65
2023-03-28T02:31:16.864Z,2.78
2023-03-28T02:33:49.120Z,8.10
2023-03-28T02:36:26.858Z,8.95
2023-03-28T02:39:10.770Z,10.88
2023-03-28T02:42:03.040Z,8.45
2023-03-28T02:44:38.485Z,8.40
2023-03-28T02:47:04.904Z,4.13
2023-03-28T02:49:50.525Z,4.38
2023-03-28T02:52:44.898Z,3.05
2023-03-28T02:55:55.964Z,4.05
2023-03-28T02:58:32.234Z,4.00
2023-03-28T03:00:58.874Z,9.87
2023-03-28T03:03:25.378Z,6.55
2023-03-28T03:05:51.933Z,7.43
2023-03-28T03:08:18.491Z,6.22
2023-03-28T03:10:45.002Z,7.07
2023-03-28T03:13:11.484Z,7.37
2023-03-28T03:15:38.127Z,9.65
2023-03-28T03:18:04.740Z,3.65
2023-03-28T03:20:31.278Z,3.65
2023-03-28T03:22:57.806Z,5.90
2023-03-28T03:25:24.275Z,5.47
2023-03-28T03:27:50.734Z,8.70
2023-03-28T03:30:17.245Z,5.47
2023-03-28T03:32:43.800Z,6.32
2023-03-28T03:35:10.317Z,7.03
2023-03-28T03:37:37.436Z,6.47
2023-03-28T03:40:04.379Z,7.72
2023-03-28T03:42:31.734Z,5.93
2023-03-28T03:44:58.166Z,4.65
2023-03-28T03:47:24.603Z,4.18
2023-03-28T03:49:50.986Z,4.80
2023-03-28T03:52:17.545Z,5.68
2023-03-28T03:54:44.080Z,2.90
2023-03-28T03:57:10.647Z,3.22
2023-03-28T03:59:37.255Z,6.60
2023-03-28T04:02:03.686Z,7.87
2023-03-28T04:04:30.426Z,5.10
2023-03-28T04:06:57.078Z,7.82
2023-03-28T04:09:24.645Z,6.57
2023-03-28T04:11:51.107Z,8.20
2023-03-28T04:14:17.825Z,6.13
2023-03-28T04:16:44.261Z,4.63
2023-03-28T04:19:11.263Z,8.55
2023-03-28T04:21:38.516Z,8.40
2023-03-28T04:24:05.442Z,5.65
2023-03-28T04:26:31.884Z,7.20
2023-03-28T04:28:58.378Z,8.35
2023-03-28T04:31:24.894Z,5.15
2023-03-28T04:33:51.395Z,6.80
2023-03-28T04:36:17.880Z,8.73
2023-03-28T04:38:44.467Z,7.47
2023-03-28T04:41:12.093Z,7.50
2023-03-28T04:43:38.606Z,8.43
2023-03-28T04:46:05.619Z,7.15
2023-03-28T04:48:32.107Z,7.90
2023-03-28T04:50:58.616Z,3.67
2023-03-28T04:53:25.208Z,7.68
2023-03-28T04:55:51.984Z,8.95
2023-03-28T04:58:21.567Z,8.25
2023-03-28T05:00:48.338Z,8.02
2023-03-28T05:03:19.634Z,6.70
2023-03-28T05:05:51.958Z,6.20
2023-03-28T05:08:21.230Z,7.05
2023-03-28T05:10:48.127Z,7.80
2023-03-28T05:13:15.582Z,8.15
2023-03-28T05:15:42.959Z,9.20
2023-03-28T05:18:09.703Z,7.43
2023-03-28T05:20:36.330Z,7.72
2023-03-28T05:23:03.620Z,6.72
2023-03-28T05:25:30.131Z,7.80
2023-03-28T05:27:56.698Z,8.53
2023-03-28T05:30:23.346Z,6.57
2023-03-28T05:32:49.922Z,6.72
2023-03-28T05:35:16.851Z,6.60
2023-03-28T05:37:46.770Z,8.48
2023-03-28T05:40:14.385Z,9.07
2023-03-28T05:42:41.397Z,8.23
2023-03-28T05:45:09.930Z,8.75
2023-03-28T05:47:36.522Z,8.93
2023-03-28T05:50:03.836Z,8.32
2023-03-28T05:52:30.413Z,8.77
2023-03-28T05:54:56.889Z,8.88
2023-03-28T05:57:23.931Z,9.52
2023-03-28T05:59:50.537Z,8.63
2023-03-28T06:02:18.726Z,9.50
2023-03-28T06:04:45.413Z,5.50
2023-03-28T06:07:13.093Z,8.32
2023-03-28T06:09:40.501Z,8.60
2023-03-28T06:12:07.656Z,9.35
2023-03-28T06:14:34.332Z,9.55
2023-03-28T06:17:01.073Z,11.07
2023-03-28T06:19:27.707Z,10.52
2023-03-28T06:21:54.198Z,12.15
2023-03-28T06:24:20.780Z,9.38
2023-03-28T06:26:47.301Z,9.20
2023-03-28T06:29:13.794Z,6.73
2023-03-28T06:31:40.310Z,7.22
2023-03-28T06:34:06.932Z,7.13
2023-03-28T06:36:33.442Z,6.78
2023-03-28T06:38:59.921Z,7.13
2023-03-28T06:41:26.477Z,6.43
2023-03-28T06:43:52.945Z,7.30
2023-03-28T06:46:19.538Z,6.38
2023-03-28T06:48:46.167Z,4.47
2023-03-28T06:51:12.826Z,7.38
2023-03-28T06:53:39.405Z,7.70
2023-03-28T06:56:06.703Z,8.10
2023-03-28T06:58:33.254Z,6.50
2023-03-28T07:01:00.486Z,6.82
2023-03-28T07:03:27.469Z,7.15
2023-03-28T07:05:54.090Z,6.23
2023-03-28T07:08:20.610Z,6.90
2023-03-28T07:10:47.375Z,6.72
2023-03-28T07:13:14.215Z,6.78
2023-03-28T07:15:41.777Z,5.72
2023-03-28T07:18:08.447Z,5.13
2023-03-28T07:20:38.484Z,5.82
2023-03-28T07:23:05.920Z,7.00
2023-03-28T07:25:33.313Z,7.53
2023-03-28T07:27:59.826Z,5.90
2023-03-28T07:30:26.276Z,6.67
2023-03-28T07:33:01.792Z,7.32
2023-03-28T07:35:41.929Z,7.93
2023-03-28T07:38:08.502Z,7.00
2023-03-28T07:40:35.225Z,7.70
2023-03-28T07:43:01.721Z,5.83
2023-03-28T07:45:28.684Z,6.60
2023-03-28T07:47:55.260Z,7.35
2023-03-28T07:50:23.651Z,5.40
2023-03-28T07:52:51.608Z,8.10
2023-03-28T07:55:18.143Z,7.97
2023-03-28T07:57:45.422Z,7.88
2023-03-28T08:00:12.259Z,5.68
2023-03-28T08:02:44.045Z,9.27
2023-03-28T08:05:11.517Z,8.10
2023-03-28T08:07:38.130Z,9.30
2023-03-28T08:10:05.010Z,7.65
2023-03-28T08:12:32.420Z,9.27
2023-03-28T08:14:59.406Z,8.20
2023-03-28T08:17:26.129Z,7.70
2023-03-28T08:19:53.154Z,5.33
2023-03-28T08:22:19.626Z,6.55
2023-03-28T08:24:46.109Z,7.63
2023-03-28T08:27:12.607Z,5.47
2023-03-28T08:29:39.163Z,5.55
2023-03-28T08:32:05.784Z,5.93
2023-03-28T08:34:32.491Z,6.50
2023-03-28T08:36:59.241Z,6.82
2023-03-28T08:39:26.165Z,5.65
2023-03-28T08:42:20.749Z,6.90
2023-03-28T08:45:16.831Z,5.93
2023-03-28T08:48:19.264Z,5.82
2023-03-28T08:50:59.366Z,6.20
2023-03-28T08:53:31.384Z,4.78
2023-03-28T08:55:58.739Z,6.25
2023-03-28T08:58:30.178Z,4.00
2023-03-28T09:00:56.773Z,3.88
2023-03-28T09:03:24.420Z,4.03
2023-03-28T09:05:50.953Z,3.20
2023-03-28T09:08:42.202Z,3.92
2023-03-28T09:11:25.926Z,3.53
2023-03-28T09:14:13.640Z,4.20
2023-03-28T09:16:46.391Z,3.92
2023-03-28T09:19:44.608Z,3.40
2023-03-28T09:22:48.740Z,3.20
2023-03-28T09:26:01.111Z,3.27
2023-03-28T09:28:49.499Z,2.78
2023-03-28T09:31:20.318Z,2.95
2023-03-28T09:33:49.385Z,2.63
2023-03-28T09:36:31.500Z,2.22
2023-03-28T09:39:13.335Z,2.30
2023-03-28T09:41:54.733Z,2.63
2023-03-28T09:44:32.090Z,2.35
2023-03-28T09:47:02.858Z,2.70
2023-03-28T09:49:29.382Z,2.28
2023-03-28T09:51:56.664Z,2.43
2023-03-28T09:54:35.651Z,2.13
2023-03-28T09:57:05.591Z,2.42
2023-03-28T09:59:34.094Z,1.90
2023-03-28T10:02:01.700Z,1.88
2023-03-28T10:04:28.235Z,1.93
2023-03-28T10:07:10.140Z,1.80
2023-03-28T10:09:53.992Z,2.00
2023-03-28T10:12:23.116Z,2.30
2023-03-28T10:14:49.912Z,1.80
2023-03-28T10:17:37.182Z,1.77
2023-03-28T10:20:15.386Z,1.52
2023-03-28T10:22:44.552Z,1.90
2023-03-28T10:25:22.683Z,2.58
2023-03-28T10:27:52.262Z,2.35
2023-03-28T10:30:27.896Z,2.13
2023-03-28T10:33:42.293Z,1.98
2023-03-28T10:36:10.678Z,2.55
2023-03-28T10:38:45.405Z,2.10
2023-03-28T10:41:26.079Z,3.00
2023-03-28T10:43:53.854Z,2.53
2023-03-28T10:46:21.899Z,2.88
2023-03-28T10:48:53.340Z,1.48
2023-03-28T10:51:23.619Z,1.60
2023-03-28T10:53:59.930Z,1.98
2023-03-28T10:56:31.807Z,2.20
2023-03-28T10:59:07.426Z,2.67
2023-03-28T11:01:49.140Z,2.50
2023-03-28T11:04:33.632Z,2.40
2023-03-28T11:07:38.487Z,2.40
2023-03-28T11:10:24.777Z,2.33
2023-03-28T11:13:22.745Z,3.95
2023-03-28T11:16:10.972Z,2.55
2023-03-28T11:18:59.186Z,1.73
2023-03-28T11:21:30.174Z,3.63
2023-03-28T11:24:14.607Z,2.27
2023-03-28T11:26:50.051Z,1.90
2023-03-28T11:29:42.163Z,2.47
2023-03-28T11:32:09.772Z,1.90
2023-03-28T11:34:42.952Z,2.05
2023-03-28T11:37:42.092Z,2.37
2023-03-28T11:40:27.133Z,1.65
2023-03-28T11:43:00.558Z,2.30
2023-03-28T11:45:50.940Z,1.70
2023-03-28T11:48:25.933Z,2.15
2023-03-28T11:51:14.111Z,1.93
2023-03-28T11:53:47.096Z,2.40
2023-03-28T11:56:25.978Z,2.13
2023-03-28T11:58:58.595Z,1.67
2023-03-28T12:01:33.824Z,2.50
2023-03-28T12:04:18.806Z,1.80
2023-03-28T12:07:01.814Z,1.73
2023-03-28T12:09:49.389Z,2.25
2023-03-28T12:12:28.989Z,1.95
2023-03-28T12:15:03.013Z,2.40
2023-03-28T12:17:35.060Z,2.30
2023-03-28T12:20:01.859Z,1.65
2023-03-28T12:22:40.722Z,1.45
2023-03-28T12:25:23.997Z,2.13
2023-03-28T12:28:22.493Z,2.22
2023-03-28T12:31:02.993Z,1.53
2023-03-28T12:33:55.756Z,1.63
2023-03-28T12:36:40.234Z,2.10
2023-03-28T12:39:09.818Z,1.55
2023-03-28T12:41:39.053Z,1.92
2023-03-28T12:44:29.211Z,2.70
2023-03-28T12:47:01.950Z,2.10
2023-03-28T12:49:38.116Z,2.83
2023-03-28T12:52:07.367Z,2.63
2023-03-28T12:54:52.390Z,4.07
2023-03-28T12:57:40.646Z,3.87
2023-03-28T13:00:26.139Z,3.63
2023-03-28T13:03:02.427Z,3.78
2023-03-28T13:05:46.203Z,3.60
2023-03-28T13:08:42.801Z,3.75
2023-03-28T13:11:20.710Z,3.80
2023-03-28T13:14:08.814Z,3.03
2023-03-28T13:16:46.340Z,2.80
2023-03-28T13:19:17.975Z,3.72
2023-03-28T13:21:49.113Z,2.90
2023-03-28T13:24:34.238Z,4.50
2023-03-28T13:27:10.980Z,3.42
2023-03-28T13:29:48.029Z,2.85
2023-03-28T13:32:18.022Z,3.65
2023-03-28T13:34:54.932Z,3.53
2023-03-28T13:37:27.104Z,3.50
2023-03-28T13:39:59.471Z,2.28
2023-03-28T13:42:35.026Z,3.58
2023-03-28T13:45:06.236Z,2.20
2023-03-28T13:47:36.243Z,1.83
2023-03-28T13:50:15.820Z,2.70
2023-03-28T13:52:42.366Z,3.00
2023-03-28T13:55:21.045Z,2.72
2023-03-28T13:57:49.141Z,3.33
2023-03-28T14:00:19.806Z,3.00
2023-03-28T14:02:48.756Z,3.37
2023-03-28T14:05:19.681Z,3.33
2023-03-28T14:07:46.826Z,2.88
2023-03-28T14:10:34.789Z,2.60
2023-03-28T14:13:07.447Z,2.80
2023-03-28T14:15:36.870Z,2.40
2023-03-28T14:18:04.006Z,1.98
2023-03-28T14:20:32.933Z,2.40
2023-03-28T14:23:01.305Z,1.45
2023-03-28T14:25:28.882Z,1.80
2023-03-28T14:27:56.743Z,2.17
2023-03-28T14:30:27.828Z,2.13
2023-03-28T14:33:03.192Z,1.88
2023-03-28T14:35:35.274Z,2.28
2023-03-28T14:38:07.720Z,2.22
2023-03-28T14:40:38.135Z,2.00
2023-03-28T14:43:12.027Z,2.03
2023-03-28T14:45:45.299Z,2.28
2023-03-28T14:48:16.691Z,2.15
2023-03-28T14:50:45.861Z,2.72
2023-03-28T14:53:20.198Z,2.53
2023-03-28T14:55:47.801Z,2.33
2023-03-28T14:58:14.826Z,1.75
2023-03-28T15:00:46.796Z,1.85
2023-03-28T15:03:18.967Z,1.83
2023-03-28T15:05:49.257Z,2.90
2023-03-28T15:08:26.874Z,2.35
2023-03-28T15:10:54.482Z,1.42
2023-03-28T15:13:28.345Z,2.17
2023-03-28T15:15:56.749Z,2.20
2023-03-28T15:18:29.543Z,1.40
2023-03-28T15:21:00.514Z,2.10
2023-03-28T15:23:28.669Z,2.97
2023-03-28T15:25:57.654Z,2.03
2023-03-28T15:28:27.564Z,2.08
2023-03-28T15:30:57.969Z,1.90
2023-03-28T15:33:24.650Z,2.25
2023-03-28T15:36:08.136Z,2.25
2023-03-28T15:38:38.947Z,1.95
2023-03-28T15:41:22.569Z,2.15
2023-03-28T15:43:54.678Z,2.60
2023-03-28T15:46:28.462Z,2.38
2023-03-28T15:48:59.611Z,2.83
2023-03-28T15:51:27.316Z,2.88
2023-03-28T15:53:56.362Z,2.70
2023-03-28T15:56:33.876Z,2.60
2023-03-28T15:59:11.483Z,1.77
2023-03-28T16:01:38.002Z,4.22
2023-03-28T16:04:27.325Z,2.65
2023-03-28T16:07:13.517Z,2.42
2023-03-28T16:09:40.247Z,1.90
2023-03-28T16:12:07.124Z,2.00
2023-03-28T16:14:36.200Z,2.58
2023-03-28T16:17:10.043Z,1.40
2023-03-28T16:19:36.705Z,3.63
2023-03-28T16:22:03.711Z,4.10
2023-03-28T16:24:30.955Z,2.40
2023-03-28T16:26:57.622Z,2.30
2023-03-28T16:29:24.128Z,2.17
2023-03-28T16:31:50.684Z,2.72
2023-03-28T16:34:17.205Z,2.70
2023-03-28T16:36:43.692Z,2.03
2023-03-28T16:39:11.472Z,2.22
2023-03-28T16:41:37.901Z,2.25
2023-03-28T16:44:04.841Z,2.00
2023-03-28T16:46:31.586Z,1.77
2023-03-28T16:48:58.205Z,2.10
2023-03-28T16:51:24.684Z,2.97
2023-03-28T16:53:51.302Z,1.63
2023-03-28T16:56:17.772Z,1.90
2023-03-28T16:58:44.728Z,1.97
2023-03-28T17:01:16.517Z,2.20
2023-03-28T17:03:43.068Z,2.50
2023-03-28T17:06:10.098Z,1.88
2023-03-28T17:08:36.927Z,1.73
2023-03-28T17:11:08.936Z,1.90
2023-03-28T17:13:36.840Z,1.80
2023-03-28T17:16:04.299Z,1.20
2023-03-28T17:18:30.891Z,2.25
2023-03-28T17:21:08.826Z,2.42
2023-03-28T17:23:36.893Z,2.60
2023-03-28T17:26:04.588Z,2.38
2023-03-28T17:28:31.255Z,1.73
2023-03-28T17:30:59.082Z,1.98
2023-03-28T17:33:25.779Z,2.42
2023-03-28T17:35:52.874Z,1.97
2023-03-28T17:38:19.383Z,1.50
2023-03-28T17:40:49.660Z,1.80
2023-03-28T17:43:16.285Z,1.70
2023-03-28T17:45:43.103Z,2.00
2023-03-28T17:48:09.816Z,2.40
2023-03-28T17:50:36.340Z,2.22
2023-03-28T17:53:02.904Z,2.25
2023-03-28T17:55:29.409Z,2.80
2023-03-28T17:57:55.984Z,2.90
2023-03-28T18:00:22.556Z,2.10
2023-03-28T18:02:49.094Z,2.40
2023-03-28T18:05:15.877Z,2.15
2023-03-28T18:07:42.332Z,2.20
2023-03-28T18:10:09.304Z,2.00
2023-03-28T18:12:36.485Z,1.70
2023-03-28T18:15:04.074Z,2.13
2023-03-28T18:17:30.836Z,1.45
2023-03-28T18:19:57.364Z,1.77
2023-03-28T18:22:23.848Z,1.90
2023-03-28T18:24:50.330Z,2.00
2023-03-28T18:27:16.893Z,2.17
2023-03-28T18:29:43.352Z,2.25
2023-03-28T18:32:09.816Z,2.30
2023-03-28T18:34:36.318Z,2.38
2023-03-28T18:37:02.812Z,1.63
2023-03-28T18:39:29.446Z,2.22
2023-03-28T18:41:56.001Z,2.20
2023-03-28T18:44:22.523Z,1.85
2023-03-28T18:46:48.999Z,2.65
2023-03-28T18:49:15.481Z,2.77
2023-03-28T18:51:41.944Z,2.03
2023-03-28T18:54:08.429Z,2.35
2023-03-28T18:56:34.926Z,2.20
2023-03-28T18:59:01.407Z,2.55
2023-03-28T19:01:27.921Z,2.27
2023-03-28T19:03:54.764Z,2.50
2023-03-28T19:06:21.334Z,2.10
2023-03-28T19:08:47.880Z,2.90
2023-03-28T19:11:16.954Z,3.05
2023-03-28T19:13:43.667Z,2.37
2023-03-28T19:16:13.560Z,3.53
2023-03-28T19:18:42.340Z,2.40
2023-03-28T19:21:10.658Z,2.58
2023-03-28T19:23:37.322Z,2.95
2023-03-28T19:26:06.108Z,3.20
2023-03-28T19:28:32.866Z,1.88
2023-03-28T19:31:01.873Z,2.65
2023-03-28T19:33:29.309Z,2.75
2023-03-28T19:35:57.581Z,3.10
2023-03-28T19:38:25.639Z,2.40
2023-03-28T19:40:59.851Z,2.17
2023-03-28T19:43:27.322Z,4.60
2023-03-28T19:45:53.909Z,3.05
2023-03-28T19:48:20.529Z,3.58
2023-03-28T19:50:49.047Z,2.90
2023-03-28T19:53:15.490Z,2.30
2023-03-28T19:55:41.996Z,2.65
2023-03-28T19:58:08.504Z,3.15
2023-03-28T20:00:35.060Z,2.58
2023-03-28T20:03:02.952Z,2.90
2023-03-28T20:05:29.663Z,2.90
2023-03-28T20:07:56.162Z,2.80
2023-03-28T20:10:22.967Z,2.25
2023-03-28T20:12:49.473Z,1.38
2023-03-28T20:15:16.238Z,2.10
2023-03-28T20:17:42.931Z,2.20
2023-03-28T20:20:09.843Z,2.30
2023-03-28T20:22:38.691Z,2.95
2023-03-28T20:25:05.747Z,2.92
2023-03-28T20:27:32.269Z,1.83
2023-03-28T20:29:58.758Z,3.00
2023-03-28T20:32:25.314Z,2.58
2023-03-28T20:34:51.754Z,3.63
2023-03-28T20:37:18.208Z,2.88
2023-03-28T20:39:44.955Z,2.40
2023-03-28T20:42:11.401Z,2.92
2023-03-28T20:44:37.871Z,2.47
2023-03-28T20:47:06.992Z,3.10
2023-03-28T20:49:33.874Z,2.53
2023-03-28T20:52:00.337Z,2.30
2023-03-28T20:54:26.892Z,2.33
2023-03-28T20:56:53.970Z,3.10
2023-03-28T20:59:20.751Z,2.05
2023-03-28T21:01:47.956Z,2.95
2023-03-28T21:04:14.734Z,2.97
2023-03-28T21:06:41.225Z,3.00
2023-03-28T21:09:10.278Z,3.20
2023-03-28T21:11:38.666Z,2.65
2023-03-28T21:14:07.706Z,3.20
2023-03-28T21:16:35.089Z,3.30
2023-03-28T21:19:01.982Z,2.10
2023-03-28T21:21:28.493Z,2.45
2023-03-28T21:23:55.525Z,1.95
2023-03-28T21:26:23.098Z,2.85
2023-03-28T21:28:50.533Z,2.43
2023-03-28T21:31:20.211Z,2.10
2023-03-28T21:33:48.253Z,2.90
2023-03-28T21:36:19.190Z,2.95
2023-03-28T21:38:47.031Z,2.45
2023-03-28T21:41:13.726Z,2.27
2023-03-28T21:43:40.604Z,2.13
2023-03-28T21:46:08.475Z,2.15
2023-03-28T21:48:35.416Z,2.95
2023-03-28T21:51:01.915Z,3.05
2023-03-28T21:53:46.872Z,3.10
2023-03-28T21:56:13.577Z,2.42
2023-03-28T21:58:40.524Z,2.78
2023-03-28T22:01:07.236Z,3.38
2023-03-28T22:03:36.343Z,3.30
2023-03-28T22:06:03.212Z,3.33
2023-03-28T22:08:29.800Z,2.03
2023-03-28T22:10:58.663Z,2.90
2023-03-28T22:13:25.413Z,2.50
2023-03-28T22:15:52.362Z,2.95
2023-03-28T22:18:20.413Z,2.60
2023-03-28T22:20:50.033Z,2.65
2023-03-28T22:23:19.633Z,3.35
2023-03-28T22:25:46.101Z,2.35
2023-03-28T22:28:12.578Z,3.17
2023-03-28T22:30:39.563Z,2.77
2023-03-28T22:33:07.794Z,2.85
2023-03-28T22:35:35.958Z,3.17
2023-03-28T22:38:03.421Z,2.38
2023-03-28T22:40:30.024Z,3.60
2023-03-28T22:42:56.492Z,2.37
2023-03-28T22:45:25.134Z,2.63
2023-03-28T22:47:51.946Z,2.95
2023-03-28T22:50:19.216Z,2.45
2023-03-28T22:52:46.212Z,2.17
2023-03-28T22:55:12.921Z,3.23
2023-03-28T22:57:43.811Z,3.10
2023-03-28T23:00:11.927Z,2.40
2023-03-28T23:02:39.374Z,3.15
2023-03-28T23:05:07.148Z,3.22
2023-03-28T23:07:35.299Z,3.00
2023-03-28T23:10:02.670Z,2.15
2023-03-28T23:12:29.045Z,2.95
2023-03-28T23:14:55.617Z,3.10
2023-03-28T23:17:24.047Z,2.67
2023-03-28T23:19:50.463Z,3.37
2023-03-28T23:22:16.959Z,2.97
2023-03-28T23:24:43.415Z,3.22
2023-03-28T23:27:09.879Z,3.55
2023-03-28T23:29:36.367Z,2.90
2023-03-28T23:32:03.033Z,2.37
2023-03-28T23:34:29.517Z,2.55
2023-03-28T23:36:56.000Z,3.38
2023-03-28T23:39:23.290Z,2.25
2023-03-28T23:41:49.815Z,2.50
2023-03-28T23:44:16.569Z,3.00
2023-03-28T23:46:43.032Z,2.45
2023-03-28T23:49:09.612Z,2.80
2023-03-28T23:51:36.092Z,3.22
2023-03-28T23:54:02.714Z,3.47
2023-03-28T23:56:29.197Z,2.37
2023-03-28T23:58:55.733Z,2.92
